Time;durP1;ratioP1;P1;durP2;ratioP2;P2;SDS_P1;SDS_P2;PMS_P1;PMS_P2;Temp;Humidity;BMP_temperature;BMP_pressure;BME280_temperature;BME280_humidity;BME280_pressure;Samples;Min_cycle;Max_cycle;Signal;HPM_P1;HPM_P2
2021/01/17 00:00:46;;;;;;;16.63;8.18;;;0.80;99.90;;;;;;4872871;29;20036;-75
2021/01/17 00:03:12;;;;;;;11.13;5.85;;;0.80;99.90;;;;;;4873041;29;20038;-73
2021/01/17 00:05:38;;;;;;;28.70;7.85;;;0.80;99.90;;;;;;4871256;29;20029;-76
2021/01/17 00:08:12;;;;;;;14.15;6.47;;;0.90;99.90;;;;;;4873433;29;20037;-74
2021/01/17 00:10:38;;;;;;;15.27;6.05;;;0.90;99.90;;;;;;4873013;29;20050;-76
2021/01/17 00:13:06;;;;;;;18.42;7.70;;;0.90;99.90;;;;;;4872493;29;20040;-75
2021/01/17 00:15:32;;;;;;;15.75;6.72;;;0.90;99.90;;;;;;4872215;29;21007;-74
2021/01/17 00:17:58;;;;;;;14.13;6.22;;;0.90;99.90;;;;;;4872571;29;20038;-74
2021/01/17 00:20:24;;;;;;;15.07;7.78;;;0.90;99.90;;;;;;4872676;29;20037;-74
2021/01/17 00:22:53;;;;;;;17.27;6.93;;;0.90;99.90;;;;;;4872739;29;20116;-74
2021/01/17 00:25:20;;;;;;;15.35;7.65;;;0.90;99.90;;;;;;4872408;29;20153;-74
2021/01/17 00:27:49;;;;;;;16.00;7.22;;;0.90;99.90;;;;;;4871368;29;20034;-74
2021/01/17 00:30:16;;;;;;;12.38;6.22;;;0.90;99.90;;;;;;4872401;29;20062;-76
2021/01/17 00:32:46;;;;;;;12.30;6.60;;;0.80;99.90;;;;;;4872062;29;20044;-73
2021/01/17 00:35:12;;;;;;;21.42;6.97;;;0.80;99.90;;;;;;4872802;29;20036;-75
2021/01/17 00:37:38;;;;;;;12.90;7.53;;;0.80;99.90;;;;;;4871358;29;20029;-75
2021/01/17 00:40:04;;;;;;;13.15;7.35;;;0.80;99.90;;;;;;4876110;29;20053;-74
2021/01/17 00:42:29;;;;;;;13.25;6.22;;;0.80;99.90;;;;;;4890978;29;20039;-74
2021/01/17 00:44:55;;;;;;;17.20;6.78;;;0.80;99.90;;;;;;4873874;29;20057;-74
2021/01/17 00:47:20;;;;;;;18.98;7.32;;;0.80;99.90;;;;;;4873805;29;20025;-73
2021/01/17 00:49:47;;;;;;;14.23;7.35;;;0.80;99.90;;;;;;4890853;29;20080;-74
2021/01/17 00:52:22;;;;;;;15.88;7.03;;;0.80;99.90;;;;;;4890868;29;20048;-73
2021/01/17 00:54:48;;;;;;;20.83;8.15;;;0.80;99.90;;;;;;4873713;29;20033;-75
2021/01/17 00:57:14;;;;;;;17.52;6.18;;;0.90;99.90;;;;;;4890969;29;20061;-74
2021/01/17 00:59:41;;;;;;;18.60;7.55;;;0.80;99.90;;;;;;4890898;29;20037;-74
2021/01/17 01:02:07;;;;;;;19.70;7.57;;;0.80;99.90;;;;;;4890660;29;20039;-75
2021/01/17 01:04:33;;;;;;;13.52;6.72;;;0.80;99.90;;;;;;4879777;29;20033;-74
2021/01/17 01:06:59;;;;;;;13.82;7.43;;;0.80;99.90;;;;;;4890335;29;20160;-74
2021/01/17 01:09:25;;;;;;;17.85;7.65;;;0.90;99.90;;;;;;4890357;29;20479;-74
2021/01/17 01:11:51;;;;;;;16.08;8.13;;;0.90;99.90;;;;;;4890516;29;20037;-75
2021/01/17 01:14:18;;;;;;;13.82;6.72;;;0.90;99.90;;;;;;4873535;29;20458;-74
2021/01/17 01:16:51;;;;;;;17.30;7.40;;;0.90;99.90;;;;;;4873877;29;20025;-75
2021/01/17 01:19:17;;;;;;;16.88;7.70;;;0.90;99.90;;;;;;4890456;29;20029;-74
2021/01/17 01:21:43;;;;;;;17.58;7.45;;;0.90;99.90;;;;;;4890033;29;20041;-75
2021/01/17 01:24:10;;;;;;;15.30;7.40;;;0.90;99.90;;;;;;4890648;29;20052;-75
2021/01/17 01:26:40;;;;;;;15.35;6.72;;;0.90;99.90;;;;;;4890613;29;20343;-74
2021/01/17 01:29:07;;;;;;;13.63;6.85;;;0.90;99.90;;;;;;4890365;29;20061;-76
2021/01/17 01:31:34;;;;;;;13.68;7.30;;;0.90;99.90;;;;;;4890387;29;20041;-75
2021/01/17 01:34:00;;;;;;;13.35;7.07;;;0.90;99.90;;;;;;4873697;29;20043;-75
2021/01/17 01:36:28;;;;;;;17.05;7.25;;;0.90;99.90;;;;;;4890079;29;20060;-75
2021/01/17 01:38:55;;;;;;;20.17;8.52;;;0.90;99.90;;;;;;4890397;29;20036;-75
2021/01/17 01:41:25;;;;;;;18.10;6.88;;;0.90;99.90;;;;;;4889836;29;20077;-75
2021/01/17 01:43:51;;;;;;;17.42;6.95;;;0.90;99.90;;;;;;4872331;29;20040;-76
2021/01/17 01:46:21;;;;;;;15.63;7.53;;;1.00;99.90;;;;;;4889973;29;20033;-76
2021/01/17 01:48:48;;;;;;;17.50;7.45;;;1.00;99.90;;;;;;4873519;29;20035;-76
2021/01/17 01:51:18;;;;;;;20.58;8.45;;;1.00;99.90;;;;;;4890103;29;20033;-75
2021/01/17 01:53:44;;;;;;;20.52;7.10;;;0.90;99.90;;;;;;4873396;29;20045;-75
2021/01/17 01:56:10;;;;;;;15.13;6.60;;;1.00;99.90;;;;;;4873117;29;20032;-75
2021/01/17 01:58:40;;;;;;;11.10;6.07;;;0.90;99.90;;;;;;4873381;29;20735;-74
2021/01/17 02:01:07;;;;;;;13.23;6.68;;;0.90;99.90;;;;;;4890386;29;20029;-75
2021/01/17 02:03:33;;;;;;;14.00;7.70;;;0.90;99.90;;;;;;4890134;29;20135;-75
2021/01/17 02:06:00;;;;;;;15.60;7.28;;;0.90;99.90;;;;;;4873145;29;20033;-75
2021/01/17 02:08:35;;;;;;;11.85;6.50;;;0.90;99.90;;;;;;4889495;29;20033;-76
2021/01/17 02:11:10;;;;;;;15.15;6.60;;;0.80;99.90;;;;;;4888331;29;20124;-75
2021/01/17 02:13:40;;;;;;;12.73;7.13;;;0.80;99.90;;;;;;4871971;29;20036;-75
2021/01/17 02:16:07;;;;;;;16.63;7.60;;;0.80;99.90;;;;;;4889702;29;20021;-75
2021/01/17 02:18:41;;;;;;;17.35;7.20;;;0.80;99.90;;;;;;4889519;29;20040;-75
2021/01/17 02:21:08;;;;;;;19.10;8.43;;;0.80;99.90;;;;;;4892576;29;20033;-75
2021/01/17 02:23:40;;;;;;;11.52;5.22;;;0.80;99.90;;;;;;4892826;29;20033;-75
2021/01/17 02:26:07;;;;;;;17.55;7.80;;;0.80;99.90;;;;;;4892990;29;20092;-75
2021/01/17 02:28:33;;;;;;;16.95;7.40;;;0.80;99.90;;;;;;4893432;29;20103;-74
2021/01/17 02:31:00;;;;;;;24.92;7.95;;;0.70;99.90;;;;;;4893109;29;20131;-75
2021/01/17 02:33:39;;;;;;;13.02;7.38;;;0.70;99.90;;;;;;4876237;29;20040;-75
2021/01/17 02:36:31;;;;;;;11.60;6.68;;;0.70;99.90;;;;;;4893341;29;20033;-75
2021/01/17 02:39:14;;;;;;;13.52;6.63;;;0.70;99.90;;;;;;4876387;29;20033;-75
2021/01/17 02:41:59;;;;;;;12.35;6.60;;;0.60;99.90;;;;;;4892568;29;20052;-75
2021/01/17 02:44:31;;;;;;;21.48;7.88;;;0.60;99.90;;;;;;4876165;29;20040;-76
2021/01/17 02:46:56;;;;;;;14.88;7.03;;;0.60;99.90;;;;;;4876270;29;20028;-76
2021/01/17 02:49:22;;;;;;;27.40;8.77;;;0.60;99.90;;;;;;4892815;29;20056;-76
2021/01/17 02:51:49;;;;;;;23.35;8.75;;;0.60;99.90;;;;;;4876143;29;20041;-76
2021/01/17 02:54:21;;;;;;;23.25;8.05;;;0.60;99.90;;;;;;4892472;29;20390;-76
2021/01/17 02:56:55;;;;;;;16.92;7.35;;;0.50;99.90;;;;;;4892743;29;20025;-75
2021/01/17 02:59:24;;;;;;;15.05;7.20;;;0.50;99.90;;;;;;4875947;29;20407;-74
2021/01/17 03:01:51;;;;;;;17.67;7.80;;;0.50;99.90;;;;;;4875620;29;20049;-76
2021/01/17 03:04:53;;;;;;;15.25;7.25;;;0.50;99.90;;;;;;4875904;29;20048;-75
2021/01/17 03:07:20;;;;;;;15.00;7.72;;;0.50;99.90;;;;;;4892352;29;20033;-76
2021/01/17 03:09:47;;;;;;;17.90;7.10;;;0.50;99.90;;;;;;4875779;29;20029;-76
2021/01/17 03:12:13;;;;;;;15.95;7.07;;;0.50;99.90;;;;;;4892730;29;20097;-77
2021/01/17 03:14:40;;;;;;;17.60;7.05;;;0.50;99.90;;;;;;4891956;29;20029;-76
2021/01/17 03:17:07;;;;;;;11.98;6.07;;;0.50;99.90;;;;;;4892501;29;20033;-75
2021/01/17 03:19:33;;;;;;;15.35;6.47;;;0.50;99.90;;;;;;4892457;29;20088;-75
2021/01/17 03:22:00;;;;;;;18.52;6.63;;;0.50;99.90;;;;;;4875272;29;20083;-76
2021/01/17 03:24:26;;;;;;;16.42;7.13;;;0.50;99.90;;;;;;4875260;29;20403;-75
2021/01/17 03:26:52;;;;;;;18.65;7.07;;;0.50;99.90;;;;;;4875520;29;20052;-75
2021/01/17 03:29:18;;;;;;;13.60;6.05;;;0.50;99.90;;;;;;4891782;29;20029;-76
2021/01/17 03:31:43;;;;;;;13.15;6.10;;;0.50;99.90;;;;;;4891320;29;20068;-76
2021/01/17 03:34:09;;;;;;;16.35;6.97;;;0.50;99.90;;;;;;4892066;29;20100;-76
2021/01/17 03:36:34;;;;;;;20.25;7.55;;;0.50;99.90;;;;;;4875340;29;20534;-76
2021/01/17 03:39:00;;;;;;;15.80;6.80;;;0.50;99.90;;;;;;4875050;29;20041;-76
2021/01/17 03:41:26;;;;;;;13.75;5.18;;;0.50;99.90;;;;;;4871707;29;20050;-76
2021/01/17 03:43:51;;;;;;;15.73;7.28;;;0.50;99.90;;;;;;4873165;29;20034;-76
2021/01/17 03:46:17;;;;;;;17.83;8.02;;;0.50;99.90;;;;;;4872627;29;20034;-75
2021/01/17 03:48:43;;;;;;;15.82;6.43;;;0.50;99.90;;;;;;4870559;29;20026;-78
2021/01/17 03:51:08;;;;;;;13.15;7.20;;;0.50;99.90;;;;;;4870217;29;20053;-75
2021/01/17 03:53:34;;;;;;;9.65;5.03;;;0.50;99.90;;;;;;4872827;29;20045;-76
2021/01/17 03:55:59;;;;;;;12.77;7.22;;;0.40;99.90;;;;;;4871940;29;20033;-75
2021/01/17 03:58:26;;;;;;;16.40;7.78;;;0.40;99.90;;;;;;4872738;29;20072;-75
2021/01/17 04:00:51;;;;;;;15.80;5.93;;;0.40;99.90;;;;;;4872994;29;20078;-75
2021/01/17 04:03:17;;;;;;;22.88;6.93;;;0.40;99.90;;;;;;4872908;29;20034;-76
2021/01/17 04:05:42;;;;;;;10.88;5.43;;;0.40;99.90;;;;;;4872987;29;20040;-76
2021/01/17 04:08:08;;;;;;;15.10;6.80;;;0.40;99.90;;;;;;4871855;29;20037;-76
2021/01/17 04:10:34;;;;;;;12.25;6.07;;;0.40;99.90;;;;;;4872859;29;20044;-75
2021/01/17 04:12:59;;;;;;;14.00;7.45;;;0.40;99.90;;;;;;4867312;29;20418;-75
2021/01/17 04:15:25;;;;;;;14.30;6.00;;;0.40;99.90;;;;;;4865458;29;20033;-75
2021/01/17 04:17:50;;;;;;;17.58;8.15;;;0.40;99.90;;;;;;4872539;29;20028;-76
2021/01/17 04:20:16;;;;;;;13.25;6.65;;;0.40;99.90;;;;;;4865700;29;20030;-76
2021/01/17 04:22:42;;;;;;;17.42;5.80;;;0.40;99.90;;;;;;4868795;29;20164;-77
2021/01/17 04:25:08;;;;;;;11.43;5.68;;;0.30;99.90;;;;;;4868898;29;20036;-76
2021/01/17 04:27:34;;;;;;;15.07;6.53;;;0.40;99.90;;;;;;4872007;29;20084;-76
2021/01/17 04:30:00;;;;;;;12.25;5.90;;;0.40;99.90;;;;;;4872506;29;20029;-74
2021/01/17 04:32:25;;;;;;;11.75;4.72;;;0.40;99.90;;;;;;4870531;29;20045;-76
2021/01/17 04:34:51;;;;;;;13.10;6.70;;;0.40;99.90;;;;;;4872272;29;20025;-75
2021/01/17 04:37:24;;;;;;;13.75;5.88;;;0.40;99.90;;;;;;4872433;29;20162;-75
2021/01/17 04:39:50;;;;;;;15.10;6.63;;;0.40;99.90;;;;;;4874225;29;20044;-75
2021/01/17 04:42:18;;;;;;;13.20;6.47;;;0.40;99.90;;;;;;4889188;29;20033;-76
2021/01/17 04:44:52;;;;;;;16.10;6.95;;;0.40;99.90;;;;;;4891091;29;20040;-76
2021/01/17 04:47:19;;;;;;;;;;;0.40;99.90;;;;;;4889913;29;20051;-76
2021/01/17 04:49:53;;;;;;;9.20;4.30;;;0.40;99.90;;;;;;4889823;29;19967;-76
2021/01/17 04:52:25;;;;;;;13.82;4.28;;;0.40;99.90;;;;;;4890138;29;20033;-76
2021/01/17 04:54:53;;;;;;;15.82;5.53;;;0.40;99.90;;;;;;4890476;29;20039;-75
2021/01/17 04:57:38;;;;;;;13.38;5.97;;;0.30;99.90;;;;;;4890157;29;20063;-75
2021/01/17 05:00:09;;;;;;;11.00;4.82;;;0.30;99.90;;;;;;4889261;29;20096;-76
2021/01/17 05:02:42;;;;;;;15.52;6.72;;;0.30;99.90;;;;;;4890553;29;20044;-75
2021/01/17 05:05:21;;;;;;;15.30;5.23;;;0.30;99.90;;;;;;4890554;29;20367;-77
2021/01/17 05:08:11;;;;;;;14.15;6.18;;;0.30;99.90;;;;;;4873617;29;20349;-76
2021/01/17 05:10:39;;;;;;;12.70;5.55;;;0.30;99.90;;;;;;4883579;29;20406;-77
2021/01/17 05:13:11;;;;;;;12.05;6.32;;;0.30;99.90;;;;;;4890493;29;20059;-75
2021/01/17 05:15:41;;;;;;;7.68;4.63;;;0.30;99.90;;;;;;4873686;29;20032;-76
2021/01/17 05:18:07;;;;;;;12.60;5.75;;;0.30;99.90;;;;;;4890751;29;20033;-77
2021/01/17 05:20:33;;;;;;;13.50;4.88;;;0.30;99.90;;;;;;4873538;29;20085;-76
2021/01/17 05:22:59;;;;;;;7.63;3.97;;;0.30;99.90;;;;;;4890280;29;20025;-77
2021/01/17 05:25:29;;;;;;;10.88;5.47;;;0.30;99.90;;;;;;4890463;29;20029;-75
2021/01/17 05:27:58;;;;;;;10.10;5.20;;;0.30;99.90;;;;;;4889864;29;20458;-75
2021/01/17 05:30:23;;;;;;;16.63;6.80;;;0.30;99.90;;;;;;4873422;29;20029;-75
2021/01/17 05:32:51;;;;;;;6.65;3.78;;;0.30;99.90;;;;;;4873479;29;20045;-76
2021/01/17 05:35:21;;;;;;;8.70;4.75;;;0.30;99.90;;;;;;4890008;29;20048;-76
2021/01/17 05:37:49;;;;;;;12.45;5.22;;;0.30;99.90;;;;;;4890423;29;20028;-74
2021/01/17 05:40:15;;;;;;;11.02;5.40;;;0.30;99.90;;;;;;4889850;29;20069;-76
2021/01/17 05:42:43;;;;;;;12.57;5.55;;;0.30;99.90;;;;;;4889963;29;20041;-75
2021/01/17 05:45:20;;;;;;;13.85;5.20;;;0.30;99.90;;;;;;4890502;29;20033;-76
2021/01/17 05:48:06;;;;;;;11.13;5.65;;;0.30;99.90;;;;;;4890233;29;20606;-75
2021/01/17 05:50:34;;;;;;;12.55;4.57;;;0.30;99.90;;;;;;4889415;29;20450;-76
2021/01/17 05:53:01;;;;;;;8.43;4.68;;;0.20;99.90;;;;;;4890192;29;20478;-75
2021/01/17 05:55:45;;;;;;;7.38;3.97;;;0.20;99.90;;;;;;4891952;29;20064;-75
2021/01/17 05:58:33;;;;;;;13.90;5.73;;;0.20;99.90;;;;;;4893869;29;20035;-75
2021/01/17 06:01:14;;;;;;;9.43;5.05;;;0.20;99.90;;;;;;4893828;29;20292;-75
2021/01/17 06:03:51;;;;;;;7.72;3.50;;;0.20;99.90;;;;;;4891534;29;20061;-75
2021/01/17 06:06:28;;;;;;;12.18;6.68;;;0.10;99.90;;;;;;4893520;29;20057;-76
2021/01/17 06:08:55;;;;;;;10.20;4.32;;;0.10;99.90;;;;;;4893657;29;20025;-77
2021/01/17 06:11:22;;;;;;;12.35;5.03;;;0.10;99.90;;;;;;4893438;29;20045;-76
2021/01/17 06:14:01;;;;;;;13.77;5.30;;;0.00;99.90;;;;;;4876955;29;20033;-75
2021/01/17 06:16:40;;;;;;;13.55;5.13;;;0.10;99.90;;;;;;4893059;29;20041;-78
2021/01/17 06:19:08;;;;;;;7.95;3.53;;;0.10;99.90;;;;;;4893730;29;20057;-76
2021/01/17 06:21:34;;;;;;;11.32;4.53;;;0.10;99.90;;;;;;4876712;29;20089;-76
2021/01/17 06:24:10;;;;;;;8.27;4.47;;;0.10;99.90;;;;;;4893092;29;20033;-75
2021/01/17 06:26:37;;;;;;;6.40;3.45;;;0.10;99.90;;;;;;4893445;29;20494;-76
2021/01/17 06:29:06;;;;;;;5.65;3.38;;;0.10;99.90;;;;;;4876483;29;20088;-76
2021/01/17 06:31:32;;;;;;;9.05;4.68;;;0.10;99.90;;;;;;4876144;29;20045;-76
2021/01/17 06:34:09;;;;;;;7.05;3.80;;;0.10;99.90;;;;;;4893516;29;20040;-76
2021/01/17 06:36:36;;;;;;;11.70;3.83;;;0.20;99.90;;;;;;4893332;29;20133;-76
2021/01/17 06:39:04;;;;;;;8.88;3.90;;;0.20;99.90;;;;;;4876215;29;20029;-77
2021/01/17 06:41:37;;;;;;;7.03;3.67;;;0.20;99.90;;;;;;4892738;29;20077;-76
2021/01/17 06:44:13;;;;;;;6.10;4.10;;;0.20;99.90;;;;;;4892799;29;20025;-75
2021/01/17 06:46:45;;;;;;;7.30;3.47;;;0.20;99.90;;;;;;4893475;29;20099;-77
2021/01/17 06:49:31;;;;;;;7.90;3.70;;;0.10;99.90;;;;;;4893313;29;20025;-77
2021/01/17 06:52:01;;;;;;;11.02;4.03;;;0.10;99.90;;;;;;4876021;29;20045;-76
2021/01/17 06:54:41;;;;;;;11.00;4.90;;;0.10;99.90;;;;;;4892957;29;20037;-77
2021/01/17 06:57:07;;;;;;;7.82;4.53;;;0.10;99.90;;;;;;4875852;29;20447;-76
2021/01/17 06:59:34;;;;;;;9.77;4.85;;;0.10;99.90;;;;;;4892746;29;20405;-76
2021/01/17 07:02:30;;;;;;;10.40;4.53;;;0.10;99.90;;;;;;4875836;29;20029;-76
2021/01/17 07:05:28;;;;;;;7.53;3.42;;;0.10;99.90;;;;;;4875545;29;20040;-76
2021/01/17 07:08:04;;;;;;;6.93;3.13;;;0.20;99.90;;;;;;4891485;29;20033;-75
2021/01/17 07:10:41;;;;;;;6.45;3.35;;;0.20;99.90;;;;;;4891041;29;20029;-75
2021/01/17 07:13:09;;;;;;;9.13;3.75;;;0.10;99.90;;;;;;4893054;29;20041;-75
2021/01/17 07:15:38;;;;;;;9.18;3.97;;;0.20;99.90;;;;;;4892548;29;20029;-75
2021/01/17 07:18:12;;;;;;;7.72;4.28;;;0.10;99.90;;;;;;4892224;29;20795;-75
2021/01/17 07:20:43;;;;;;;6.07;2.78;;;0.10;99.90;;;;;;4892603;29;20069;-77
2021/01/17 07:23:11;;;;;;;7.57;3.58;;;0.20;99.90;;;;;;4875802;29;20044;-75
2021/01/17 07:25:41;;;;;;;7.03;3.38;;;0.20;99.90;;;;;;4875252;29;20423;-75
2021/01/17 07:28:09;;;;;;;9.98;4.22;;;0.20;99.90;;;;;;4892631;29;20462;-73
2021/01/17 07:30:54;;;;;;;9.45;4.40;;;0.20;99.90;;;;;;4892141;29;20029;-74
2021/01/17 07:33:23;;;;;;;;;;;0.20;99.90;;;;;;4892508;29;20033;-74
2021/01/17 07:35:49;;;;;;;9.80;3.65;;;0.20;99.90;;;;;;4890743;29;19995;-73
2021/01/17 07:38:21;;;;;;;10.52;4.55;;;0.20;99.90;;;;;;4891933;29;20033;-73
2021/01/17 07:40:54;;;;;;;12.15;4.45;;;0.20;99.90;;;;;;4891713;29;20053;-73
2021/01/17 07:43:42;;;;;;;8.63;4.27;;;0.20;99.90;;;;;;4892170;29;20092;-72
2021/01/17 07:46:17;;;;;;;11.05;3.97;;;0.20;99.90;;;;;;4891245;29;20270;-74
2021/01/17 07:48:45;;;;;;;10.95;4.35;;;0.20;99.90;;;;;;4890366;29;20076;-73
2021/01/17 07:51:12;;;;;;;7.78;3.47;;;0.20;99.90;;;;;;4890880;29;20100;-74
2021/01/17 07:53:42;;;;;;;12.50;4.22;;;0.20;99.90;;;;;;4888807;29;20036;-76
2021/01/17 07:56:24;;;;;;;6.85;3.88;;;0.30;99.90;;;;;;4890026;29;20025;-74
2021/01/17 07:58:52;;;;;;;9.43;3.25;;;0.30;99.90;;;;;;4890143;29;20036;-73
2021/01/17 08:01:42;;;;;;;10.88;4.40;;;0.30;99.90;;;;;;4889948;29;20120;-75
2021/01/17 08:04:10;;;;;;;9.98;4.75;;;0.30;99.90;;;;;;4890432;29;20025;-73
2021/01/17 08:06:36;;;;;;;10.95;4.97;;;0.30;99.90;;;;;;4889446;29;20124;-74
2021/01/17 08:09:13;;;;;;;8.18;4.45;;;0.30;99.90;;;;;;4874489;29;20073;-73
2021/01/17 08:11:43;;;;;;;7.88;3.22;;;0.30;99.90;;;;;;4874809;29;20136;-75
2021/01/17 08:14:26;;;;;;;9.02;4.40;;;0.30;99.90;;;;;;4874763;29;20061;-73
2021/01/17 08:17:06;;;;;;;10.60;3.80;;;0.40;99.90;;;;;;4891129;29;20032;-74
2021/01/17 08:19:39;;;;;;;9.50;3.90;;;0.30;99.90;;;;;;4891155;29;20041;-73
2021/01/17 08:22:17;;;;;;;8.23;3.97;;;0.40;99.90;;;;;;4891382;29;20041;-73
2021/01/17 08:24:43;;;;;;;11.02;4.22;;;0.40;99.90;;;;;;4891532;29;20040;-75
2021/01/17 08:27:08;;;;;;;12.18;4.80;;;0.40;99.90;;;;;;4891010;29;20029;-74
2021/01/17 08:30:03;;;;;;;8.10;4.25;;;0.40;99.90;;;;;;4874139;29;20119;-73
2021/01/17 08:32:45;;;;;;;12.38;4.55;;;0.40;99.90;;;;;;4890988;29;20512;-74
2021/01/17 08:35:10;;;;;;;10.48;4.75;;;0.40;99.90;;;;;;4891025;29;20064;-73
2021/01/17 08:37:37;;;;;;;8.10;4.07;;;0.40;99.90;;;;;;4872732;29;20494;-72
2021/01/17 08:40:04;;;;;;;17.85;5.65;;;0.40;99.90;;;;;;4872906;29;20053;-73
2021/01/17 08:42:32;;;;;;;9.13;4.07;;;0.40;99.90;;;;;;4890247;29;20040;-73
2021/01/17 08:44:58;;;;;;;10.68;6.10;;;0.40;99.90;;;;;;4873707;29;20025;-74
2021/01/17 08:47:24;;;;;;;12.45;4.15;;;0.40;99.90;;;;;;4887648;29;20055;-73
2021/01/17 08:49:51;;;;;;;10.85;4.93;;;0.50;99.90;;;;;;4872612;29;20037;-74
2021/01/17 08:52:33;;;;;;;10.38;5.20;;;0.50;99.90;;;;;;4889984;29;20406;-75
2021/01/17 08:54:58;;;;;;;9.50;3.72;;;0.50;99.90;;;;;;4889986;29;20025;-74
2021/01/17 08:57:43;;;;;;;4.88;3.17;;;0.50;99.90;;;;;;4873739;29;20032;-73
2021/01/17 09:00:10;;;;;;;12.38;5.65;;;0.50;99.90;;;;;;4887664;29;20029;-74
2021/01/17 09:02:37;;;;;;;6.55;3.92;;;0.50;99.90;;;;;;4889285;29;20052;-73
2021/01/17 09:05:04;;;;;;;8.18;4.40;;;0.50;99.90;;;;;;4890534;29;20040;-74
2021/01/17 09:07:35;;;;;;;11.10;5.03;;;0.50;99.90;;;;;;4872406;29;20037;-72
2021/01/17 09:10:08;;;;;;;5.32;3.28;;;0.60;99.90;;;;;;4889593;29;20029;-73
2021/01/17 09:12:36;;;;;;;10.85;5.03;;;0.60;99.90;;;;;;4872086;29;20045;-73
2021/01/17 09:15:11;;;;;;;12.05;4.38;;;0.60;99.90;;;;;;4871545;29;20033;-75
2021/01/17 09:17:39;;;;;;;4.93;3.35;;;0.70;99.90;;;;;;4854897;29;20029;-74
2021/01/17 09:20:13;;;;;;;8.07;4.28;;;0.60;99.90;;;;;;4871602;29;20037;-74
2021/01/17 09:22:42;;;;;;;12.07;5.22;;;0.60;99.90;;;;;;4871327;29;20034;-75
2021/01/17 09:25:10;;;;;;;5.55;2.08;;;0.70;99.90;;;;;;4871821;29;20025;-74
2021/01/17 09:27:38;;;;;;;13.45;5.28;;;0.70;99.90;;;;;;4870496;29;20041;-74
2021/01/17 09:30:05;;;;;;;6.57;3.75;;;0.80;99.90;;;;;;4870902;29;20034;-73
2021/01/17 09:32:31;;;;;;;16.23;5.65;;;0.90;99.90;;;;;;4871864;29;20048;-74
2021/01/17 09:34:57;;;;;;;10.30;3.97;;;0.90;99.90;;;;;;4871688;29;20033;-76
2021/01/17 09:37:23;;;;;;;13.77;4.30;;;0.90;99.90;;;;;;4871642;29;20036;-74
2021/01/17 09:39:50;;;;;;;8.52;3.97;;;0.90;99.90;;;;;;4871627;29;20040;-74
2021/01/17 09:42:19;;;;;;;8.52;3.92;;;0.90;99.90;;;;;;4871515;29;20033;-74
2021/01/17 09:44:51;;;;;;;8.55;4.28;;;1.00;99.90;;;;;;4871503;29;20053;-74
2021/01/17 09:47:19;;;;;;;10.27;3.92;;;1.00;99.90;;;;;;4872226;29;20082;-75
2021/01/17 09:49:45;;;;;;;6.15;3.42;;;1.10;99.90;;;;;;4855435;29;20064;-75
2021/01/17 09:52:17;;;;;;;9.88;4.15;;;1.20;99.90;;;;;;4871928;29;20052;-75
2021/01/17 09:54:43;;;;;;;8.52;3.38;;;1.20;99.90;;;;;;4871574;29;20081;-75
2021/01/17 09:57:23;;;;;;;11.77;4.65;;;1.30;99.90;;;;;;4871485;29;20392;-73
2021/01/17 09:59:51;;;;;;;12.13;4.43;;;1.30;99.90;;;;;;4871582;29;20436;-73
2021/01/17 10:02:21;;;;;;;7.00;4.07;;;1.20;99.90;;;;;;4871075;29;20041;-76
2021/01/17 10:04:47;;;;;;;6.95;3.78;;;1.20;99.90;;;;;;4854748;29;20029;-73
2021/01/17 10:07:17;;;;;;;9.88;4.40;;;1.30;99.90;;;;;;4871538;29;20026;-74
2021/01/17 10:09:43;;;;;;;6.55;4.32;;;1.40;99.90;;;;;;4871767;29;20034;-73
2021/01/17 10:12:10;;;;;;;6.70;3.55;;;1.40;99.90;;;;;;4886336;29;20041;-73
2021/01/17 10:14:40;;;;;;;7.38;2.42;;;1.30;99.90;;;;;;4891631;29;20042;-75
2021/01/17 10:17:06;;;;;;;7.43;3.50;;;1.30;99.90;;;;;;4889897;29;20056;-73
2021/01/17 10:19:34;;;;;;;12.40;4.35;;;1.30;99.90;;;;;;4889996;29;20036;-72
2021/01/17 10:22:02;;;;;;;7.72;3.38;;;1.30;99.90;;;;;;4890044;29;20577;-73
2021/01/17 10:24:29;;;;;;;8.48;4.47;;;1.30;99.90;;;;;;4889777;29;20057;-73
2021/01/17 10:26:57;;;;;;;7.47;3.25;;;1.30;99.90;;;;;;4874519;29;20037;-73
2021/01/17 10:29:37;;;;;;;10.05;4.43;;;1.30;99.90;;;;;;4874009;29;20363;-74
2021/01/17 10:32:10;;;;;;;9.82;4.57;;;1.30;99.90;;;;;;4889685;29;20052;-75
2021/01/17 10:34:45;;;;;;;3.65;2.75;;;1.30;99.90;;;;;;4889759;29;20572;-73
2021/01/17 10:37:13;;;;;;;10.95;5.38;;;1.30;99.90;;;;;;4873128;29;20125;-72
2021/01/17 10:39:41;;;;;;;11.90;4.70;;;1.30;99.90;;;;;;4889289;29;20040;-75
2021/01/17 10:42:22;;;;;;;10.45;4.65;;;1.30;99.90;;;;;;4875705;29;20037;-73
2021/01/17 10:44:54;;;;;;;18.08;4.18;;;1.40;99.90;;;;;;4893066;29;20510;-73
2021/01/17 10:47:45;;;;;;;11.48;5.03;;;1.40;99.90;;;;;;4892849;29;20029;-71
2021/01/17 10:50:14;;;;;;;7.10;4.32;;;1.40;99.90;;;;;;4867311;29;20084;-73
2021/01/17 10:52:45;;;;;;;7.00;3.67;;;1.30;99.90;;;;;;4875931;29;20047;-71
2021/01/17 10:55:14;;;;;;;10.05;4.70;;;1.30;99.90;;;;;;4876400;29;20044;-74
2021/01/17 10:57:41;;;;;;;12.02;4.53;;;1.30;99.90;;;;;;4893168;29;20033;-72
2021/01/17 11:00:08;;;;;;;8.90;5.38;;;1.30;99.90;;;;;;4892964;29;20029;-73
2021/01/17 11:02:34;;;;;;;9.25;4.70;;;1.30;99.90;;;;;;4893409;29;20036;-72
2021/01/17 11:05:00;;;;;;;8.35;3.83;;;1.30;99.90;;;;;;4876180;29;20069;-73
2021/01/17 11:07:28;;;;;;;10.18;4.95;;;1.30;99.90;;;;;;4892392;29;20033;-72
2021/01/17 11:09:57;;;;;;;9.13;3.83;;;1.30;99.90;;;;;;4873748;29;20037;-74
2021/01/17 11:12:37;;;;;;;9.52;4.15;;;1.30;99.90;;;;;;4891929;29;20123;-74
2021/01/17 11:15:18;;;;;;;9.30;3.92;;;1.30;99.90;;;;;;4874877;29;20440;-73
2021/01/17 11:17:51;;;;;;;10.38;3.75;;;1.30;99.90;;;;;;4856806;29;20033;-74
2021/01/17 11:20:16;;;;;;;12.27;5.25;;;1.20;99.90;;;;;;4873526;29;20033;-74
2021/01/17 11:22:42;;;;;;;10.75;4.72;;;1.20;99.90;;;;;;4873592;29;20040;-75
2021/01/17 11:25:19;;;;;;;9.98;5.28;;;1.20;99.90;;;;;;4873613;29;20068;-76
2021/01/17 11:27:46;;;;;;;8.63;4.07;;;1.20;99.90;;;;;;4873302;29;20041;-75
2021/01/17 11:30:16;;;;;;;11.80;6.20;;;1.20;99.90;;;;;;4873455;29;20025;-75
2021/01/17 11:32:42;;;;;;;10.45;4.38;;;1.20;99.90;;;;;;4873385;29;20040;-76
2021/01/17 11:35:25;;;;;;;17.85;4.55;;;1.30;99.90;;;;;;4871884;29;20033;-74
2021/01/17 11:37:51;;;;;;;6.30;3.92;;;1.30;99.90;;;;;;4871756;29;20038;-74
2021/01/17 11:40:19;;;;;;;9.85;5.60;;;1.30;99.90;;;;;;4873031;29;20069;-75
2021/01/17 11:42:45;;;;;;;11.02;4.25;;;1.20;99.90;;;;;;4872993;29;20097;-75
2021/01/17 11:45:20;;;;;;;15.15;5.32;;;1.20;99.90;;;;;;4873322;29;20034;-76
2021/01/17 11:47:46;;;;;;;13.05;5.35;;;1.10;99.90;;;;;;4872964;29;20030;-75
2021/01/17 11:50:19;;;;;;;17.20;5.78;;;1.10;99.90;;;;;;4872036;29;20108;-72
2021/01/17 11:53:02;;;;;;;9.05;5.50;;;1.20;99.90;;;;;;4870643;29;20514;-72
2021/01/17 11:55:29;;;;;;;11.15;5.50;;;1.20;99.90;;;;;;4871273;29;20037;-72
2021/01/17 11:58:09;;;;;;;13.38;6.20;;;1.20;99.90;;;;;;4872914;29;20041;-73
2021/01/17 12:01:10;;;;;;;16.75;7.88;;;1.20;99.90;;;;;;4871689;29;20477;-72
2021/01/17 12:03:43;;;;;;;13.32;6.70;;;1.20;99.90;;;;;;4870545;29;20049;-72
2021/01/17 12:06:11;;;;;;;10.27;4.60;;;1.30;99.90;;;;;;4872445;29;20056;-74
2021/01/17 12:09:03;;;;;;;14.80;8.32;;;1.40;99.90;;;;;;4872815;29;20044;-74
2021/01/17 12:11:41;;;;;;;13.10;6.43;;;1.40;99.90;;;;;;4871092;29;20052;-75
2021/01/17 12:14:22;;;;;;;15.50;5.53;;;1.50;99.90;;;;;;4872523;29;20372;-74
2021/01/17 12:16:58;;;;;;;12.60;5.95;;;1.60;99.90;;;;;;4870893;29;20539;-71
2021/01/17 12:19:26;;;;;;;13.55;6.07;;;1.70;99.90;;;;;;4872277;29;20026;-72
2021/01/17 12:21:56;;;;;;;11.05;5.15;;;1.80;99.90;;;;;;4872169;29;20040;-72
2021/01/17 12:24:22;;;;;;;8.30;4.70;;;2.00;99.90;;;;;;4870985;29;20029;-72
2021/01/17 12:26:50;;;;;;;11.73;5.32;;;2.10;99.90;;;;;;4872342;29;20053;-72
2021/01/17 12:29:16;;;;;;;9.35;3.78;;;2.20;99.90;;;;;;4871863;29;20101;-74
2021/01/17 12:31:42;;;;;;;11.23;5.55;;;2.20;99.90;;;;;;4878183;29;20041;-74
2021/01/17 12:34:09;;;;;;;11.18;5.05;;;2.10;99.90;;;;;;4874011;29;20121;-74
2021/01/17 12:36:37;;;;;;;12.60;6.88;;;2.00;99.90;;;;;;4889880;29;20065;-73
2021/01/17 12:39:04;;;;;;;14.73;6.50;;;1.90;99.90;;;;;;4889958;29;20165;-73
2021/01/17 12:41:31;;;;;;;12.23;5.57;;;1.90;99.90;;;;;;4889255;29;20072;-74
2021/01/17 12:44:04;;;;;;;15.63;6.20;;;1.80;99.90;;;;;;4889576;29;20096;-73
2021/01/17 12:46:29;;;;;;;15.75;5.35;;;1.80;99.90;;;;;;4889997;29;20537;-73
2021/01/17 12:48:56;;;;;;;10.40;5.47;;;1.90;99.90;;;;;;4889625;29;20040;-73
2021/01/17 12:51:22;;;;;;;15.02;5.57;;;1.90;99.90;;;;;;4889448;29;20052;-73
2021/01/17 12:53:49;;;;;;;18.73;6.15;;;2.00;99.90;;;;;;4889768;29;20033;-73
2021/01/17 12:56:16;;;;;;;18.00;6.90;;;2.00;99.90;;;;;;4889765;29;20033;-73
2021/01/17 12:58:42;;;;;;;17.27;5.55;;;1.90;99.90;;;;;;4873070;29;20025;-73
2021/01/17 13:01:08;;;;;;;8.48;3.75;;;1.90;99.90;;;;;;4889056;29;20025;-72
2021/01/17 13:03:34;;;;;;;15.43;5.78;;;1.80;99.90;;;;;;4889231;29;20100;-73
2021/01/17 13:06:00;;;;;;;12.23;6.03;;;1.70;99.90;;;;;;4872913;29;20542;-73